Time;durP1;ratioP1;P1;durP2;ratioP2;P2;SDS_P1;SDS_P2;PMS_P1;PMS_P2;Temp;Humidity;BMP_temperature;BMP_pressure;BME280_temperature;BME280_humidity;BME280_pressure;Samples;Min_cycle;Max_cycle;Signal;HPM_P1;HPM_P2
2022/04/26 03:37:05;;;;;;;;;5.00;5.00;;;;;;;;5078970;28;11450;-68
2022/04/26 03:39:30;;;;;;;;;4.25;3.00;;;;;;;;5078459;28;12676;-68
2022/04/26 03:41:55;;;;;;;;;4.50;4.00;;;;;;;;5078833;28;11457;-68
2022/04/26 03:44:21;;;;;;;;;5.25;4.00;;;;;;;;5078172;28;9519;-68
2022/04/26 03:46:46;;;;;;;;;6.00;4.50;;;;;;;;5078465;28;8811;-68
2022/04/26 03:49:11;;;;;;;;;4.50;4.50;;;;;;;;5078087;28;11867;-68
2022/04/26 03:51:37;;;;;;;;;5.50;4.75;;;;;;;;5078031;28;8965;-69
2022/04/26 03:54:02;;;;;;;;;9.50;5.00;;;;;;;;5077839;28;11562;-68
2022/04/26 03:56:27;;;;;;;;;5.00;5.00;;;;;;;;5076428;28;12068;-68
2022/04/26 03:58:52;;;;;;;;;6.00;5.00;;;;;;;;5077825;28;9433;-68
2022/04/26 04:01:18;;;;;;;;;6.50;6.50;;;;;;;;5077847;28;8811;-68
2022/04/26 04:03:43;;;;;;;;;8.00;6.00;;;;;;;;5077896;28;10286;-68
2022/04/26 04:06:08;;;;;;;;;7.75;7.75;;;;;;;;5078200;28;11303;-69
2022/04/26 04:08:34;;;;;;;;;8.25;8.00;;;;;;;;5078622;28;11376;-68
2022/04/26 04:10:59;;;;;;;;;7.25;7.25;;;;;;;;5078390;28;12870;-69
2022/04/26 04:13:25;;;;;;;;;8.75;7.50;;;;;;;;5078154;28;11315;-69
2022/04/26 04:15:50;;;;;;;;;7.00;7.00;;;;;;;;5078354;28;11487;-69
2022/04/26 04:21:00;;;;;;;;;7.00;6.00;;;;;;;;5078364;28;8812;-68
2022/04/26 04:23:25;;;;;;;;;10.75;9.00;;;;;;;;5078033;28;11729;-67
2022/04/26 04:25:51;;;;;;;;;9.50;9.50;;;;;;;;5077744;28;22446;-69
2022/04/26 04:28:16;;;;;;;;;8.00;8.00;;;;;;;;5077523;28;21324;-68
2022/04/26 04:30:41;;;;;;;;;10.50;9.50;;;;;;;;5077635;28;11293;-68
2022/04/26 04:33:07;;;;;;;;;11.50;9.00;;;;;;;;5077307;28;21313;-68
2022/04/26 04:35:32;;;;;;;;;11.00;8.25;;;;;;;;5077454;28;10709;-69
2022/04/26 04:37:57;;;;;;;;;8.00;7.50;;;;;;;;5077323;28;10760;-68
2022/04/26 04:40:23;;;;;;;;;10.00;10.00;;;;;;;;5077790;28;23254;-68
2022/04/26 04:42:48;;;;;;;;;9.00;7.75;;;;;;;;5075174;28;24062;-68
2022/04/26 04:45:14;;;;;;;;;9.25;8.75;;;;;;;;5077677;28;22158;-69
2022/04/26 04:47:39;;;;;;;;;12.75;12.75;;;;;;;;5076408;28;9648;-68
2022/04/26 04:50:04;;;;;;;;;12.00;12.00;;;;;;;;5075748;28;24151;-69
2022/04/26 04:52:30;;;;;;;;;11.25;10.00;;;;;;;;5078010;28;9512;-69
2022/04/26 04:54:55;;;;;;;;;9.75;8.75;;;;;;;;5079695;28;10474;-66
2022/04/26 04:57:20;;;;;;;;;9.50;9.25;;;;;;;;5079315;28;22475;-68
2022/04/26 04:59:46;;;;;;;;;12.75;12.00;;;;;;;;5080475;28;9470;-69
2022/04/26 05:02:11;;;;;;;;;11.50;10.50;;;;;;;;5079052;28;24050;-69
2022/04/26 05:04:39;;;;;;;;;15.50;12.75;;;;;;;;5077721;28;12329;-68
2022/04/26 05:07:04;;;;;;;;;12.00;11.75;;;;;;;;5080469;28;11529;-68
2022/04/26 05:09:30;;;;;;;;;12.00;11.00;;;;;;;;5079335;28;11529;-68
2022/04/26 05:11:55;;;;;;;;;8.00;8.00;;;;;;;;5079912;28;8906;-68
2022/04/26 05:14:20;;;;;;;;;11.50;11.00;;;;;;;;5078861;28;22278;-69
2022/04/26 05:16:45;;;;;;;;;8.00;8.00;;;;;;;;5079220;28;22549;-69
2022/04/26 05:19:11;;;;;;;;;11.50;9.25;;;;;;;;5078775;28;22854;-68
2022/04/26 05:21:37;;;;;;;;;12.25;8.50;;;;;;;;5079028;28;22579;-68
2022/04/26 05:26:46;;;;;;;;;11.50;6.75;;;;;;;;5078270;28;11573;-69
2022/04/26 05:29:12;;;;;;;;;9.50;9.00;;;;;;;;5077152;28;12505;-69
2022/04/26 05:31:37;;;;;;;;;10.75;9.25;;;;;;;;5078901;28;21734;-68
2022/04/26 05:34:02;;;;;;;;;10.50;8.00;;;;;;;;5078904;28;21677;-68
2022/04/26 05:36:27;;;;;;;;;9.00;9.00;;;;;;;;5079404;28;10448;-71
2022/04/26 05:38:53;;;;;;;;;10.25;10.25;;;;;;;;5079311;28;21299;-70
2022/04/26 05:41:18;;;;;;;;;10.00;9.50;;;;;;;;5079222;28;23539;-70
2022/04/26 05:43:43;;;;;;;;;13.00;11.50;;;;;;;;5078480;28;21447;-71
2022/04/26 05:46:12;;;;;;;;;13.50;9.50;;;;;;;;5078396;28;21517;-70
2022/04/26 05:48:38;;;;;;;;;13.75;11.00;;;;;;;;5074722;28;21437;-69
2022/04/26 05:51:03;;;;;;;;;12.00;9.00;;;;;;;;5078340;28;21409;-70
2022/04/26 05:53:29;;;;;;;;;11.50;8.75;;;;;;;;5078342;28;21504;-70
2022/04/26 05:55:54;;;;;;;;;9.50;9.25;;;;;;;;5075346;28;10467;-69
2022/04/26 05:58:20;;;;;;;;;12.00;9.25;;;;;;;;5077839;28;21361;-69
2022/04/26 06:00:45;;;;;;;;;15.25;13.00;;;;;;;;5076174;28;16255;-69
2022/04/26 06:03:11;;;;;;;;;18.50;13.00;;;;;;;;5076437;28;21433;-68
2022/04/26 06:05:36;;;;;;;;;12.25;12.25;;;;;;;;5078708;28;8858;-69
2022/04/26 06:08:01;;;;;;;;;13.00;9.50;;;;;;;;5078024;28;11366;-71
2022/04/26 06:10:28;;;;;;;;;12.50;11.25;;;;;;;;5076759;28;21918;-71
2022/04/26 06:12:53;;;;;;;;;14.25;11.00;;;;;;;;5074622;28;21994;-68
2022/04/26 06:15:18;;;;;;;;;11.75;11.75;;;;;;;;5077940;28;12352;-68
2022/04/26 06:17:44;;;;;;;;;16.50;14.00;;;;;;;;5078130;28;12536;-68
2022/04/26 06:20:09;;;;;;;;;12.50;12.00;;;;;;;;5077671;28;11587;-68
2022/04/26 06:22:35;;;;;;;;;11.50;11.50;;;;;;;;5072311;28;8916;-68
2022/04/26 06:25:00;;;;;;;;;11.25;11.25;;;;;;;;5074483;28;11587;-68
2022/04/26 06:27:25;;;;;;;;;11.50;8.50;;;;;;;;5078076;28;8996;-67
2022/04/26 06:29:51;;;;;;;;;15.50;13.50;;;;;;;;5078527;28;21617;-69
2022/04/26 06:32:16;;;;;;;;;20.50;15.00;;;;;;;;5078093;28;21515;-68
2022/04/26 06:34:41;;;;;;;;;12.75;12.75;;;;;;;;5078124;28;13254;-68
2022/04/26 06:37:07;;;;;;;;;14.75;14.75;;;;;;;;5077252;28;14450;-68
2022/04/26 06:39:32;;;;;;;;;39.67;35.00;;;;;;;;5078302;28;8834;-68
2022/04/26 06:41:57;;;;;;;;;39.67;37.00;;;;;;;;5077747;28;13297;-68
2022/04/26 06:44:22;;;;;;;;;36.00;33.67;;;;;;;;5078262;28;8851;-72
2022/04/26 06:46:48;;;;;;;;;18.67;17.00;;;;;;;;5077858;28;11621;-72
2022/04/26 06:49:13;;;;;;;;;17.67;17.00;;;;;;;;5077751;28;13376;-71
2022/04/26 06:51:43;;;;;;;;;25.75;18.50;;;;;;;;5076581;28;9306;-69
2022/04/26 06:54:08;;;;;;;;;27.00;20.25;;;;;;;;5077847;28;13534;-70
2022/04/26 06:56:34;;;;;;;;;25.67;24.67;;;;;;;;5076196;28;14902;-69
2022/04/26 06:58:59;;;;;;;;;28.67;25.33;;;;;;;;5076101;28;14794;-69
2022/04/26 07:01:25;;;;;;;;;27.75;22.75;;;;;;;;5077488;28;11543;-68
2022/04/26 07:03:50;;;;;;;;;22.25;15.50;;;;;;;;5077150;28;10543;-67
2022/04/26 07:06:15;;;;;;;;;21.00;18.00;;;;;;;;5077196;28;12438;-68
2022/04/26 07:08:41;;;;;;;;;19.25;18.00;;;;;;;;5077482;28;11518;-69
2022/04/26 07:11:06;;;;;;;;;18.00;17.00;;;;;;;;5077720;28;10667;-68
2022/04/26 07:13:31;;;;;;;;;19.25;17.25;;;;;;;;5076567;28;10329;-68
2022/04/26 07:15:57;;;;;;;;;17.25;17.25;;;;;;;;5066415;28;12723;-68
2022/04/26 07:18:22;;;;;;;;;18.50;17.50;;;;;;;;5061454;28;8794;-68
2022/04/26 07:20:47;;;;;;;;;17.00;17.00;;;;;;;;5062301;28;11364;-68
2022/04/26 07:23:12;;;;;;;;;19.75;18.00;;;;;;;;5077440;28;11771;-68
2022/04/26 07:25:39;;;;;;;;;14.00;13.00;;;;;;;;5077936;28;10331;-69
2022/04/26 07:28:04;;;;;;;;;15.50;14.00;;;;;;;;5077208;28;10487;-68
2022/04/26 07:30:36;;;;;;;;;14.50;12.75;;;;;;;;5073598;28;11572;-68
2022/04/26 07:35:45;;;;;;;;;14.00;13.50;;;;;;;;5076204;28;11466;-68
2022/04/26 07:38:11;;;;;;;;;15.75;14.50;;;;;;;;5074996;28;13445;-68
2022/04/26 07:40:36;;;;;;;;;16.75;16.00;;;;;;;;5075910;28;10486;-68
2022/04/26 07:43:03;;;;;;;;;19.75;17.75;;;;;;;;5065719;28;13856;-68
2022/04/26 07:45:30;;;;;;;;;19.50;19.00;;;;;;;;5061524;28;13305;-68
2022/04/26 07:47:55;;;;;;;;;17.25;14.00;;;;;;;;5060137;28;11539;-68
2022/04/26 07:50:20;;;;;;;;;16.50;15.00;;;;;;;;5068245;28;11526;-68
2022/04/26 07:52:46;;;;;;;;;14.50;14.25;;;;;;;;5065939;28;10485;-68
2022/04/26 07:55:11;;;;;;;;;15.25;11.75;;;;;;;;5066367;28;12115;-68
2022/04/26 07:57:39;;;;;;;;;16.00;13.00;;;;;;;;5067729;28;10337;-68
2022/04/26 08:00:05;;;;;;;;;16.00;14.50;;;;;;;;5073798;28;11461;-68
2022/04/26 08:02:30;;;;;;;;;13.00;11.75;;;;;;;;5076343;28;11235;-68
2022/04/26 08:05:01;;;;;;;;;14.75;13.00;;;;;;;;5076070;28;11385;-68
2022/04/26 08:07:26;;;;;;;;;15.00;13.50;;;;;;;;5075072;28;11454;-68
2022/04/26 08:09:51;;;;;;;;;10.25;10.25;;;;;;;;5078665;28;11390;-69
2022/04/26 08:12:17;;;;;;;;;13.50;12.00;;;;;;;;5077305;28;13898;-69
2022/04/26 08:14:42;;;;;;;;;14.50;13.00;;;;;;;;5077860;28;11392;-69
2022/04/26 08:17:07;;;;;;;;;10.50;10.25;;;;;;;;5076437;28;8819;-68
2022/04/26 08:19:32;;;;;;;;;14.00;12.75;;;;;;;;5062742;28;12103;-68
2022/04/26 08:21:58;;;;;;;;;14.50;13.00;;;;;;;;5067123;28;10359;-66
2022/04/26 08:27:22;;;;;;;;;13.75;11.00;;;;;;;;5071040;28;9563;-66
2022/04/26 08:29:48;;;;;;;;;9.25;9.25;;;;;;;;5077508;28;11816;-66
2022/04/26 08:32:13;;;;;;;;;11.50;11.50;;;;;;;;5077916;28;24169;-67
2022/04/26 08:34:39;;;;;;;;;10.67;9.67;;;;;;;;5079780;28;22646;-66
2022/04/26 08:37:05;;;;;;;;;10.33;9.33;;;;;;;;5079287;28;21507;-67
2022/04/26 08:39:30;;;;;;;;;11.00;10.00;;;;;;;;5078891;28;9129;-66
2022/04/26 08:41:59;;;;;;;;;11.67;10.00;;;;;;;;5078646;28;22594;-66
2022/04/26 08:44:25;;;;;;;;;10.33;9.33;;;;;;;;5078722;28;8840;-66
2022/04/26 08:52:19;;;;;;;;;8.50;8.50;;;;;;;;5078933;28;21518;-66
2022/04/26 08:54:44;;;;;;;;;6.33;6.33;;;;;;;;5076770;28;11724;-67
2022/04/26 08:57:11;;;;;;;;;7.00;5.00;;;;;;;;5080914;28;11615;-66
2022/04/26 08:59:44;;;;;;;;;8.00;7.50;;;;;;;;5074904;28;11372;-66
2022/04/26 09:02:18;;;;;;;;;7.75;7.75;;;;;;;;5080223;28;11377;-66
2022/04/26 09:04:43;;;;;;;;;5.75;5.00;;;;;;;;5070766;28;11933;-66
2022/04/26 09:07:09;;;;;;;;;8.00;6.00;;;;;;;;5060714;28;11341;-66
2022/04/26 09:09:37;;;;;;;;;5.00;5.00;;;;;;;;5060637;28;11123;-66
2022/04/26 09:12:09;;;;;;;;;4.25;4.25;;;;;;;;5060591;28;9491;-66
2022/04/26 09:14:36;;;;;;;;;8.25;5.75;;;;;;;;5059874;28;11728;-66
2022/04/26 09:17:06;;;;;;;;;7.75;7.00;;;;;;;;5059161;28;13052;-67
2022/04/26 09:19:44;;;;;;;;;5.00;5.00;;;;;;;;5059327;28;11847;-67
2022/04/26 09:22:20;;;;;;;;;4.75;4.25;;;;;;;;5060354;28;10415;-67
2022/04/26 09:24:54;;;;;;;;;5.00;5.00;;;;;;;;5059799;28;11632;-67
2022/04/26 09:27:20;;;;;;;;;6.25;5.25;;;;;;;;5060012;28;12750;-67
2022/04/26 09:29:47;;;;;;;;;5.50;4.50;;;;;;;;5060894;28;12702;-66
2022/04/26 09:32:12;;;;;;;;;5.25;5.00;;;;;;;;5060579;28;11379;-66
2022/04/26 09:34:40;;;;;;;;;5.33;4.33;;;;;;;;5060614;28;10415;-66
2022/04/26 09:37:05;;;;;;;;;5.00;4.75;;;;;;;;5059250;28;9035;-66
2022/04/26 09:39:31;;;;;;;;;4.33;4.33;;;;;;;;5060718;28;8814;-67
2022/04/26 09:41:57;;;;;;;;;4.67;4.67;;;;;;;;5060040;28;11133;-67
2022/04/26 09:44:32;;;;;;;;;5.33;5.00;;;;;;;;5063774;28;8848;-67
2022/04/26 09:46:58;;;;;;;;;4.00;4.00;;;;;;;;5077923;28;11613;-68
2022/04/26 09:49:24;;;;;;;;;8.00;6.00;;;;;;;;5077040;28;10688;-67
2022/04/26 09:52:01;;;;;;;;;5.25;5.00;;;;;;;;5078735;28;8966;-67
2022/04/26 09:54:26;;;;;;;;;5.75;4.50;;;;;;;;5077572;28;12426;-67
2022/04/26 09:56:52;;;;;;;;;18.33;16.33;;;;;;;;5079238;28;10361;-67
2022/04/26 09:59:23;;;;;;;;;8.00;8.00;;;;;;;;5078453;28;22353;-67
2022/04/26 10:01:50;;;;;;;;;4.50;4.25;;;;;;;;5078229;28;22248;-67
2022/04/26 10:04:21;;;;;;;;;5.00;5.00;;;;;;;;5080144;28;12547;-67
2022/04/26 10:06:49;;;;;;;;;5.00;5.00;;;;;;;;5080045;28;11406;-67
2022/04/26 10:09:15;;;;;;;;;7.33;6.33;;;;;;;;5079664;28;8780;-67
2022/04/26 10:11:40;;;;;;;;;7.67;5.00;;;;;;;;5079047;28;12725;-67
2022/04/26 10:14:06;;;;;;;;;5.00;5.00;;;;;;;;5079795;28;11588;-68
2022/04/26 10:16:32;;;;;;;;;5.00;5.00;;;;;;;;5080118;28;8794;-67
2022/04/26 10:19:17;;;;;;;;;7.00;5.33;;;;;;;;5079941;28;9980;-67
2022/04/26 10:21:46;;;;;;;;;8.00;5.00;;;;;;;;5071133;28;11598;-67
2022/04/26 10:24:11;;;;;;;;;5.00;5.00;;;;;;;;5075809;28;11649;-67
2022/04/26 10:26:37;;;;;;;;;6.00;5.25;;;;;;;;5077208;28;9093;-68
2022/04/26 10:29:12;;;;;;;;;7.00;6.00;;;;;;;;5077807;28;11308;-68
2022/04/26 10:31:39;;;;;;;;;4.00;4.00;;;;;;;;5078823;28;12067;-67
2022/04/26 10:34:24;;;;;;;;;8.50;5.75;;;;;;;;5078026;28;9451;-67
2022/04/26 10:36:50;;;;;;;;;6.00;6.00;;;;;;;;5067234;28;11866;-67
2022/04/26 10:39:19;;;;;;;;;8.00;6.50;;;;;;;;5069873;28;11543;-67
2022/04/26 10:41:45;;;;;;;;;7.00;7.00;;;;;;;;5067986;28;11881;-67
2022/04/26 10:44:13;;;;;;;;;7.25;6.00;;;;;;;;5060971;28;11594;-67
2022/04/26 10:46:42;;;;;;;;;7.00;6.00;;;;;;;;5066770;28;9985;-66
2022/04/26 10:49:23;;;;;;;;;6.00;5.00;;;;;;;;5069368;28;9631;-68
2022/04/26 10:51:51;;;;;;;;;4.50;4.50;;;;;;;;5064765;28;9747;-68
2022/04/26 10:54:36;;;;;;;;;4.25;4.25;;;;;;;;5059278;28;11594;-68
2022/04/26 10:57:02;;;;;;;;;5.25;3.75;;;;;;;;5059319;28;9883;-69
2022/04/26 10:59:27;;;;;;;;;5.50;4.75;;;;;;;;5059054;28;10522;-67
2022/04/26 11:01:54;;;;;;;;;5.75;5.75;;;;;;;;5059201;28;9534;-67
2022/04/26 11:04:20;;;;;;;;;6.50;4.75;;;;;;;;5058614;28;9841;-67
2022/04/26 11:06:45;;;;;;;;;8.25;6.25;;;;;;;;5064123;28;10663;-67
2022/04/26 11:09:12;;;;;;;;;4.25;4.25;;;;;;;;5078801;28;10523;-67
2022/04/26 11:11:47;;;;;;;;;4.50;4.00;;;;;;;;5078747;28;9741;-66
2022/04/26 11:14:13;;;;;;;;;4.25;4.25;;;;;;;;5065957;28;9904;-66
2022/04/26 11:16:52;;;;;;;;;4.25;4.25;;;;;;;;5064325;28;10003;-67
2022/04/26 11:19:24;;;;;;;;;5.00;5.00;;;;;;;;5067770;28;8877;-66
2022/04/26 11:21:50;;;;;;;;;4.50;4.50;;;;;;;;5069059;28;11584;-66
2022/04/26 11:30:00;;;;;;;;;5.75;4.75;;;;;;;;5074417;28;11832;-68
2022/04/26 11:32:30;;;;;;;;;5.00;5.00;;;;;;;;5077196;28;11402;-67
2022/04/26 11:34:55;;;;;;;;;5.25;5.00;;;;;;;;5076853;28;10363;-67
2022/04/26 11:37:20;;;;;;;;;5.00;4.00;;;;;;;;5077210;28;10289;-67
2022/04/26 11:39:46;;;;;;;;;6.00;5.00;;;;;;;;5068761;28;9697;-68
2022/04/26 11:42:12;;;;;;;;;5.00;5.00;;;;;;;;5067000;28;8904;-69
2022/04/26 11:44:54;;;;;;;;;9.00;6.00;;;;;;;;5068181;28;8996;-68
2022/04/26 11:47:20;;;;;;;;;7.50;7.50;;;;;;;;5063457;28;9237;-68
2022/04/26 11:49:45;;;;;;;;;5.00;4.00;;;;;;;;5066620;28;11362;-67
2022/04/26 11:52:10;;;;;;;;;4.75;4.75;;;;;;;;5073143;28;11878;-68
2022/04/26 11:54:36;;;;;;;;;5.00;5.00;;;;;;;;5074287;28;12100;-67
2022/04/26 11:57:02;;;;;;;;;5.75;5.75;;;;;;;;5065731;28;11510;-69
2022/04/26 11:59:28;;;;;;;;;6.25;5.50;;;;;;;;5072641;28;8872;-68
2022/04/26 12:01:53;;;;;;;;;5.00;5.00;;;;;;;;5072493;28;11319;-68
2022/04/26 12:04:19;;;;;;;;;5.00;5.00;;;;;;;;5071485;28;11384;-68
2022/04/26 12:06:44;;;;;;;;;7.00;4.25;;;;;;;;5067128;28;9459;-68
2022/04/26 12:09:12;;;;;;;;;7.00;5.75;;;;;;;;5061564;28;11526;-70
2022/04/26 12:11:38;;;;;;;;;5.00;5.00;;;;;;;;5065304;28;9022;-67
2022/04/26 12:14:05;;;;;;;;;5.50;5.00;;;;;;;;5069243;28;13305;-67
2022/04/26 12:16:31;;;;;;;;;6.25;5.25;;;;;;;;5069326;28;8812;-67
2022/04/26 12:18:57;;;;;;;;;5.00;5.00;;;;;;;;5070428;28;11368;-67
2022/04/26 12:21:24;;;;;;;;;4.75;4.75;;;;;;;;5069580;28;11407;-67
2022/04/26 12:24:09;;;;;;;;;4.25;4.25;;;;;;;;5067901;28;13552;-66
2022/04/26 12:26:34;;;;;;;;;5.00;5.00;;;;;;;;5076138;28;10428;-67
2022/04/26 12:29:00;;;;;;;;;4.50;4.50;;;;;;;;5080178;28;11549;-67
2022/04/26 12:31:28;;;;;;;;;4.00;4.00;;;;;;;;5080408;28;11576;-67
2022/04/26 12:34:12;;;;;;;;;4.00;4.00;;;;;;;;5068648;28;11632;-68
2022/04/26 12:36:58;;;;;;;;;6.00;5.00;;;;;;;;5070365;28;10618;-67
2022/04/26 12:39:25;;;;;;;;;6.50;5.50;;;;;;;;5079127;28;10584;-67
2022/04/26 12:41:56;;;;;;;;;6.75;6.00;;;;;;;;5079800;28;10231;-67
2022/04/26 12:44:21;;;;;;;;;5.00;4.00;;;;;;;;5051657;28;13518;-67
2022/04/26 12:52:38;;;;;;;;;4.75;4.00;;;;;;;;5077206;28;10277;-67
2022/04/26 12:55:03;;;;;;;;;5.00;5.00;;;;;;;;5078955;28;11173;-67
2022/04/26 12:57:29;;;;;;;;;5.00;5.00;;;;;;;;5079811;28;11443;-67
2022/04/26 12:59:54;;;;;;;;;6.50;5.25;;;;;;;;5079871;28;8815;-67
2022/04/26 13:02:19;;;;;;;;;5.50;5.50;;;;;;;;5077745;28;14062;-66
2022/04/26 13:04:44;;;;;;;;;9.25;6.25;;;;;;;;5079664;28;11895;-66
2022/04/26 13:07:10;;;;;;;;;6.25;5.75;;;;;;;;5077664;28;11708;-66
2022/04/26 13:09:35;;;;;;;;;5.25;5.00;;;;;;;;5079884;28;10923;-67
2022/04/26 13:12:00;;;;;;;;;6.00;6.00;;;;;;;;5079395;28;11597;-67
2022/04/26 13:14:27;;;;;;;;;4.25;4.25;;;;;;;;5079884;28;10501;-66
2022/04/26 13:16:52;;;;;;;;;4.25;4.25;;;;;;;;5078307;28;11632;-67
2022/04/26 13:19:18;;;;;;;;;5.00;4.00;;;;;;;;5078615;28;10545;-68
2022/04/26 13:21:43;;;;;;;;;5.25;5.25;;;;;;;;5076892;28;11552;-67
2022/04/26 13:24:08;;;;;;;;;4.50;4.50;;;;;;;;5076830;28;12757;-67
2022/04/26 13:26:35;;;;;;;;;6.50;6.50;;;;;;;;5076613;28;11799;-66
2022/04/26 13:29:00;;;;;;;;;6.50;5.50;;;;;;;;5079813;28;8839;-67
2022/04/26 13:31:26;;;;;;;;;4.25;4.25;;;;;;;;5078839;28;10519;-66
2022/04/26 13:33:51;;;;;;;;;6.00;5.00;;;;;;;;5078381;28;11872;-66
2022/04/26 13:36:17;;;;;;;;;6.00;5.50;;;;;;;;5076868;28;13599;-66
2022/04/26 13:38:42;;;;;;;;;2.00;0.00;;;;;;;;5078636;28;8803;-66
2022/04/26 13:41:08;;;;;;;;;5.75;5.75;;;;;;;;5077737;28;11292;-66
2022/04/26 13:43:33;;;;;;;;;4.50;4.50;;;;;;;;5077558;28;11482;-66
2022/04/26 22:05:14;;;;;;;;;11.00;8.00;;;;;;;;5190203;27;86855;-72
2022/04/26 22:07:39;;;;;;;;;5.75;5.75;;;;;;;;5177505;27;21519;-72
2022/04/26 22:10:05;;;;;;;;;5.00;4.50;;;;;;;;5178145;27;21880;-73
2022/04/26 22:12:31;;;;;;;;;7.50;5.25;;;;;;;;5178256;27;10602;-72
2022/04/26 22:14:57;;;;;;;;;5.75;5.75;;;;;;;;5177568;27;11416;-72
2022/04/26 22:17:22;;;;;;;;;8.50;4.50;;;;;;;;5178520;27;10903;-72
2022/04/26 22:19:48;;;;;;;;;25.50;20.75;;;;;;;;5177731;27;11440;-73
2022/04/26 22:22:13;;;;;;;;;14.50;11.75;;;;;;;;5177368;27;22701;-72
2022/04/26 22:24:39;;;;;;;;;9.00;9.00;;;;;;;;5178105;27;12087;-73
2022/04/26 22:27:05;;;;;;;;;10.50;9.00;;;;;;;;5178101;27;22723;-71
2022/04/26 22:29:30;;;;;;;;;9.75;8.75;;;;;;;;5178400;27;16273;-72
2022/04/26 22:31:55;;;;;;;;;4.00;4.00;;;;;;;;5177950;27;21511;-73
2022/04/26 22:34:21;;;;;;;;;5.25;5.25;;;;;;;;5176147;27;13902;-72
2022/04/26 22:36:46;;;;;;;;;6.00;6.00;;;;;;;;5178116;27;11710;-73
2022/04/26 22:39:11;;;;;;;;;7.00;7.00;;;;;;;;5178101;27;11339;-72
2022/04/26 22:41:37;;;;;;;;;11.00;9.00;;;;;;;;5178087;27;8777;-73
2022/04/26 22:44:02;;;;;;;;;7.25;7.00;;;;;;;;5175955;27;23948;-73
2022/04/26 22:46:28;;;;;;;;;6.25;6.25;;;;;;;;5177360;27;21652;-73
2022/04/26 22:48:53;;;;;;;;;8.00;6.00;;;;;;;;5177479;27;11363;-72
2022/04/26 22:51:19;;;;;;;;;5.00;5.00;;;;;;;;5177675;27;11306;-72
2022/04/26 22:53:45;;;;;;;;;5.75;5.75;;;;;;;;5177793;27;8921;-72
2022/04/26 22:56:10;;;;;;;;;7.50;6.00;;;;;;;;5175924;27;10172;-72
2022/04/26 22:58:36;;;;;;;;;6.00;6.00;;;;;;;;5178025;27;11773;-72
2022/04/26 23:01:01;;;;;;;;;7.25;6.25;;;;;;;;5178360;27;9025;-72
2022/04/26 23:03:26;;;;;;;;;9.00;6.50;;;;;;;;5177680;27;11330;-72
2022/04/26 23:05:52;;;;;;;;;7.50;6.50;;;;;;;;5176102;27;13761;-71
2022/04/26 23:08:17;;;;;;;;;5.75;5.75;;;;;;;;5177998;27;8781;-71
2022/04/26 23:10:42;;;;;;;;;5.50;5.50;;;;;;;;5177683;27;11292;-72
2022/04/26 23:13:08;;;;;;;;;6.50;6.00;;;;;;;;5177602;27;8781;-72
2022/04/26 23:15:33;;;;;;;;;3.00;3.00;;;;;;;;5169720;27;11286;-72
2022/04/26 23:17:59;;;;;;;;;7.00;6.00;;;;;;;;5163007;27;11825;-72
2022/04/26 23:20:25;;;;;;;;;9.50;6.00;;;;;;;;5163082;27;9023;-71
2022/04/26 23:22:51;;;;;;;;;6.00;5.75;;;;;;;;5163717;27;11453;-71
2022/04/26 23:25:16;;;;;;;;;6.75;6.00;;;;;;;;5163316;27;11461;-72
2022/04/26 23:27:41;;;;;;;;;7.00;6.00;;;;;;;;5163496;27;10700;-73
2022/04/26 23:30:07;;;;;;;;;5.50;5.50;;;;;;;;5163475;27;9537;-75
2022/04/26 23:32:32;;;;;;;;;9.75;5.25;;;;;;;;5163312;27;11280;-74
2022/04/26 23:37:43;;;;;;;;;6.25;5.50;;;;;;;;5163036;27;11346;-73
2022/04/26 23:40:08;;;;;;;;;6.50;5.00;;;;;;;;5162847;27;11426;-73
2022/04/26 23:42:33;;;;;;;;;4.50;3.00;;;;;;;;5162992;27;11440;-72
2022/04/26 23:45:00;;;;;;;;;6.00;6.00;;;;;;;;5161015;27;8812;-72
2022/04/26 23:47:26;;;;;;;;;6.75;5.00;;;;;;;;5161435;27;12974;-72
2022/04/26 23:49:52;;;;;;;;;3.00;3.00;;;;;;;;5163427;27;11398;-72
2022/04/26 23:55:01;;;;;;;;;7.00;6.00;;;;;;;;5163404;27;11356;-72
2022/04/26 23:57:26;;;;;;;;;5.50;5.50;;;;;;;;5162723;27;11596;-73
2022/04/26 23:59:52;;;;;;;;;8.00;5.50;;;;;;;;5162879;27;12608;-73
